Time;durP1;ratioP1;P1;durP2;ratioP2;P2;SDS_P1;SDS_P2;PMS_P1;PMS_P2;Temp;Humidity;BMP_temperature;BMP_pressure;BME280_temperature;BME280_humidity;BME280_pressure;Samples;Min_cycle;Max_cycle;Signal;HPM_P1;HPM_P2
2023/05/17 00:02:07;;;;;;;6.38;0.95;;;;;;;;;;5024145;28;20053;-79
2023/05/17 00:04:32;;;;;;;3.72;0.88;;;;;;;;;;5027599;28;20459;-79
2023/05/17 00:06:57;;;;;;;4.65;0.95;;;;;;;;;;5027245;28;20033;-79
2023/05/17 00:09:23;;;;;;;4.30;1.20;;;;;;;;;;5023808;28;20041;-79
2023/05/17 00:11:48;;;;;;;6.45;0.90;;;;;;;;;;5026255;28;20038;-79
2023/05/17 00:14:13;;;;;;;6.78;1.10;;;;;;;;;;5023803;28;20029;-78
2023/05/17 00:16:38;;;;;;;3.00;1.10;;;;;;;;;;5031261;28;20497;-79
2023/05/17 00:19:04;;;;;;;5.00;1.20;;;;;;;;;;5023461;28;20096;-79
2023/05/17 00:21:30;;;;;;;4.53;0.90;;;;;;;;;;5028950;28;20039;-79
2023/05/17 00:23:55;;;;;;;5.68;0.95;;;;;;;;;;5024463;28;20069;-79
2023/05/17 00:26:20;;;;;;;3.63;1.33;;;;;;;;;;5026885;28;20115;-79
2023/05/17 00:28:45;;;;;;;4.22;0.90;;;;;;;;;;5021640;28;20060;-78
2023/05/17 00:31:12;;;;;;;4.00;0.90;;;;;;;;;;5028501;28;20088;-77
2023/05/17 00:33:38;;;;;;;9.55;1.52;;;;;;;;;;5025382;28;20029;-78
2023/05/17 00:36:03;;;;;;;3.63;0.80;;;;;;;;;;5024429;28;20109;-79
2023/05/17 00:38:28;;;;;;;5.93;0.90;;;;;;;;;;5028179;28;20026;-79
2023/05/17 00:40:54;;;;;;;3.92;0.93;;;;;;;;;;5023742;28;20560;-79
2023/05/17 00:43:19;;;;;;;5.13;1.00;;;;;;;;;;5027018;28;20112;-79
2023/05/17 00:45:47;;;;;;;4.97;1.20;;;;;;;;;;5023502;28;20112;-79
2023/05/17 00:48:12;;;;;;;5.13;0.90;;;;;;;;;;5025985;28;20029;-78
2023/05/17 00:50:37;;;;;;;5.18;1.15;;;;;;;;;;5025008;28;20044;-78
2023/05/17 00:53:03;;;;;;;4.10;1.55;;;;;;;;;;5027556;28;20380;-79
2023/05/17 00:55:28;;;;;;;4.97;1.08;;;;;;;;;;5024320;28;20025;-78
2023/05/17 00:57:54;;;;;;;5.95;2.03;;;;;;;;;;5024928;28;20088;-79
2023/05/17 01:00:20;;;;;;;5.93;1.50;;;;;;;;;;5025665;28;20037;-79
2023/05/17 01:02:47;;;;;;;6.18;0.98;;;;;;;;;;5024103;28;20025;-79
2023/05/17 01:05:12;;;;;;;9.25;1.65;;;;;;;;;;5008130;28;20033;-79
2023/05/17 01:07:38;;;;;;;6.45;1.50;;;;;;;;;;5024717;28;20075;-79
2023/05/17 01:10:03;;;;;;;6.85;1.58;;;;;;;;;;5027651;28;20038;-78
2023/05/17 01:12:51;;;;;;;4.95;1.40;;;;;;;;;;5026768;28;20063;-78
2023/05/17 01:15:21;;;;;;;5.00;1.40;;;;;;;;;;4998091;28;20480;-78
2023/05/17 01:18:02;;;;;;;5.78;1.35;;;;;;;;;;5025103;28;20053;-79
2023/05/17 01:20:33;;;;;;;6.93;1.48;;;;;;;;;;5023496;28;20056;-79
2023/05/17 01:23:17;;;;;;;8.20;1.80;;;;;;;;;;5025164;28;20022;-78
2023/05/17 01:26:05;;;;;;;4.25;1.08;;;;;;;;;;5023466;28;20096;-79
2023/05/17 01:28:32;;;;;;;5.78;1.10;;;;;;;;;;5023726;28;20038;-78
2023/05/17 01:31:00;;;;;;;5.95;1.10;;;;;;;;;;5028437;28;20033;-79
2023/05/17 01:33:25;;;;;;;8.00;1.40;;;;;;;;;;5005628;28;20037;-79
2023/05/17 01:35:50;;;;;;;6.53;1.30;;;;;;;;;;5025217;28;20026;-78
2023/05/17 01:38:15;;;;;;;3.88;1.20;;;;;;;;;;5027419;28;20036;-78
2023/05/17 01:40:46;;;;;;;4.15;1.10;;;;;;;;;;5027003;28;20045;-78
2023/05/17 01:43:23;;;;;;;7.13;1.50;;;;;;;;;;5025803;28;20415;-77
2023/05/17 01:46:09;;;;;;;4.75;1.77;;;;;;;;;;5024810;28;20087;-79
2023/05/17 01:48:35;;;;;;;4.72;1.27;;;;;;;;;;5027435;28;20061;-78
2023/05/17 01:51:01;;;;;;;6.90;1.10;;;;;;;;;;5026765;28;20033;-77
2023/05/17 01:53:28;;;;;;;9.15;1.77;;;;;;;;;;5027034;28;20033;-78
2023/05/17 01:56:00;;;;;;;5.07;1.30;;;;;;;;;;5028463;28;20125;-78
2023/05/17 01:58:26;;;;;;;8.85;1.73;;;;;;;;;;5026549;28;20030;-78
2023/05/17 02:00:52;;;;;;;5.53;1.30;;;;;;;;;;5026498;28;20034;-78
2023/05/17 02:03:18;;;;;;;7.57;1.85;;;;;;;;;;5031433;28;20033;-79
2023/05/17 02:05:44;;;;;;;7.35;1.60;;;;;;;;;;5031311;28;20117;-78
2023/05/17 02:08:09;;;;;;;9.57;2.08;;;;;;;;;;5025770;28;20404;-78
2023/05/17 02:10:34;;;;;;;6.68;2.00;;;;;;;;;;5030554;28;20040;-78
2023/05/17 02:13:01;;;;;;;7.18;1.50;;;;;;;;;;5031070;28;20022;-79
2023/05/17 02:15:27;;;;;;;9.48;1.58;;;;;;;;;;5027034;28;20034;-77
2023/05/17 02:17:52;;;;;;;8.07;2.03;;;;;;;;;;5028485;28;20029;-78
2023/05/17 02:20:17;;;;;;;5.47;1.75;;;;;;;;;;5028889;28;20033;-78
2023/05/17 02:22:43;;;;;;;4.93;1.42;;;;;;;;;;5027769;28;20477;-78
2023/05/17 02:25:08;;;;;;;9.07;1.60;;;;;;;;;;5028385;28;20025;-78
2023/05/17 02:27:34;;;;;;;6.47;1.67;;;;;;;;;;5038678;23;20053;-75
2023/05/17 02:30:00;;;;;;;8.50;1.98;;;;;;;;;;5026617;28;20029;-76
2023/05/17 02:32:26;;;;;;;8.20;1.77;;;;;;;;;;5024164;28;20344;-76
2023/05/17 02:34:51;;;;;;;5.40;1.38;;;;;;;;;;5025149;28;20037;-76
2023/05/17 02:37:16;;;;;;;3.05;1.35;;;;;;;;;;5013177;28;20183;-76
2023/05/17 02:39:42;;;;;;;8.63;1.98;;;;;;;;;;5005817;28;20032;-76
2023/05/17 02:42:08;;;;;;;9.95;2.10;;;;;;;;;;5029717;28;20025;-76
2023/05/17 02:44:33;;;;;;;5.70;1.80;;;;;;;;;;5025178;28;20113;-76
2023/05/17 02:46:58;;;;;;;6.43;1.63;;;;;;;;;;5023296;28;20030;-76
2023/05/17 02:49:23;;;;;;;6.68;1.63;;;;;;;;;;5022396;28;20034;-76
2023/05/17 02:51:49;;;;;;;9.52;1.73;;;;;;;;;;5005837;28;20032;-76
2023/05/17 02:54:14;;;;;;;7.28;1.55;;;;;;;;;;5014983;28;20116;-76
2023/05/17 02:56:39;;;;;;;5.35;1.45;;;;;;;;;;4989096;28;20022;-76
2023/05/17 02:59:05;;;;;;;6.25;2.00;;;;;;;;;;5002541;28;20029;-75
2023/05/17 03:01:34;;;;;;;5.68;1.58;;;;;;;;;;5007052;28;20124;-76
2023/05/17 03:04:00;;;;;;;8.20;2.05;;;;;;;;;;5004304;28;20567;-76
2023/05/17 03:06:26;;;;;;;6.07;1.95;;;;;;;;;;5009379;28;20033;-76
2023/05/17 03:08:51;;;;;;;6.38;1.80;;;;;;;;;;5025027;28;20034;-76
2023/05/17 03:11:16;;;;;;;8.85;2.22;;;;;;;;;;5023552;28;20624;-76
2023/05/17 03:13:42;;;;;;;5.35;1.48;;;;;;;;;;5004280;28;20144;-76
2023/05/17 03:16:08;;;;;;;10.70;2.15;;;;;;;;;;5009732;28;20030;-76
2023/05/17 03:18:34;;;;;;;8.23;1.98;;;;;;;;;;5009298;28;20708;-76
2023/05/17 03:21:00;;;;;;;7.97;1.95;;;;;;;;;;4987194;28;20033;-76
2023/05/17 03:23:26;;;;;;;6.82;1.98;;;;;;;;;;5006141;28;20033;-76
2023/05/17 03:25:57;;;;;;;6.63;2.20;;;;;;;;;;4987634;28;20033;-76
2023/05/17 03:28:24;;;;;;;8.25;2.70;;;;;;;;;;5023069;28;20029;-76
2023/05/17 03:30:50;;;;;;;12.25;2.00;;;;;;;;;;5008749;28;20036;-76
2023/05/17 03:33:16;;;;;;;7.70;2.20;;;;;;;;;;5007748;28;20029;-76
2023/05/17 03:35:41;;;;;;;6.82;2.42;;;;;;;;;;5013046;28;20512;-76
2023/05/17 03:38:06;;;;;;;7.10;2.03;;;;;;;;;;5004916;28;20022;-76
2023/05/17 03:40:32;;;;;;;5.32;1.50;;;;;;;;;;5004165;28;20065;-73
2023/05/17 03:42:58;;;;;;;9.57;2.50;;;;;;;;;;4988595;28;20034;-73
2023/05/17 03:45:25;;;;;;;8.07;2.30;;;;;;;;;;5006182;28;20025;-73
2023/05/17 03:47:51;;;;;;;8.15;2.80;;;;;;;;;;5006208;28;20080;-73
2023/05/17 03:50:16;;;;;;;8.10;3.00;;;;;;;;;;5011618;28;20532;-73
2023/05/17 03:52:41;;;;;;;8.77;1.98;;;;;;;;;;5003994;28;20079;-73
2023/05/17 03:55:08;;;;;;;8.43;2.03;;;;;;;;;;5003856;28;20076;-73
2023/05/17 03:57:33;;;;;;;7.68;2.38;;;;;;;;;;5005718;28;20487;-73
2023/05/17 03:59:58;;;;;;;7.97;2.40;;;;;;;;;;5010301;28;20030;-73
2023/05/17 04:02:24;;;;;;;9.70;2.60;;;;;;;;;;5003441;28;20030;-74
2023/05/17 04:04:49;;;;;;;6.00;2.33;;;;;;;;;;5023582;28;20029;-73
2023/05/17 04:07:16;;;;;;;9.07;2.15;;;;;;;;;;5013510;28;20107;-74
2023/05/17 04:09:41;;;;;;;8.90;2.80;;;;;;;;;;5005738;28;20124;-73
2023/05/17 04:12:09;;;;;;;13.05;3.15;;;;;;;;;;4988365;28;20029;-73
2023/05/17 04:14:34;;;;;;;6.93;2.22;;;;;;;;;;5006094;28;20026;-73
2023/05/17 04:17:00;;;;;;;6.70;2.42;;;;;;;;;;5022637;28;20036;-74
2023/05/17 04:19:25;;;;;;;7.38;2.50;;;;;;;;;;5002856;28;20155;-74
2023/05/17 04:21:51;;;;;;;7.57;2.22;;;;;;;;;;5006232;28;20120;-74
2023/05/17 04:24:18;;;;;;;8.73;2.90;;;;;;;;;;5002350;28;20033;-75
2023/05/17 04:26:45;;;;;;;6.50;2.58;;;;;;;;;;5012478;28;20030;-75
2023/05/17 04:29:10;;;;;;;6.15;2.35;;;;;;;;;;5006168;28;20125;-75
2023/05/17 04:31:36;;;;;;;10.38;2.38;;;;;;;;;;5005436;28;20033;-75
2023/05/17 04:34:01;;;;;;;8.75;2.67;;;;;;;;;;4989300;28;20108;-75
2023/05/17 04:36:27;;;;;;;8.80;2.80;;;;;;;;;;5010792;28;20046;-75
2023/05/17 04:38:53;;;;;;;8.10;2.53;;;;;;;;;;5005117;28;20026;-75
2023/05/17 04:41:23;;;;;;;7.60;2.33;;;;;;;;;;5004345;28;20068;-75
2023/05/17 04:43:48;;;;;;;8.63;2.53;;;;;;;;;;5024282;28;20061;-75
2023/05/17 04:46:20;;;;;;;7.65;3.25;;;;;;;;;;5004835;28;20838;-75
2023/05/17 04:48:45;;;;;;;10.57;2.50;;;;;;;;;;5006453;28;20124;-75
2023/05/17 04:51:11;;;;;;;10.27;2.90;;;;;;;;;;5004010;28;20033;-75
2023/05/17 04:53:37;;;;;;;6.35;2.30;;;;;;;;;;5003368;28;20030;-75
2023/05/17 04:56:08;;;;;;;7.70;2.40;;;;;;;;;;5012302;28;20850;-75
2023/05/17 04:58:34;;;;;;;8.75;2.65;;;;;;;;;;5009027;28;20068;-75
2023/05/17 05:01:00;;;;;;;10.73;2.80;;;;;;;;;;5001209;28;20033;-75
2023/05/17 05:03:26;;;;;;;7.07;3.53;;;;;;;;;;5027878;28;20070;-75
2023/05/17 05:05:52;;;;;;;8.25;3.17;;;;;;;;;;5000979;28;20049;-75
2023/05/17 05:08:18;;;;;;;8.00;2.95;;;;;;;;;;5004213;28;20034;-75
2023/05/17 05:10:45;;;;;;;8.48;3.05;;;;;;;;;;5003447;28;20045;-75
2023/05/17 05:13:11;;;;;;;10.43;2.75;;;;;;;;;;5001628;28;20028;-75
2023/05/17 05:15:38;;;;;;;8.52;3.00;;;;;;;;;;5003225;28;20021;-75
2023/05/17 05:18:03;;;;;;;17.13;3.58;;;;;;;;;;5011164;28;20037;-75
2023/05/17 05:20:30;;;;;;;9.25;3.17;;;;;;;;;;5024562;28;20101;-75
2023/05/17 05:22:57;;;;;;;7.25;2.70;;;;;;;;;;5015078;28;20118;-75
2023/05/17 05:25:23;;;;;;;7.88;2.50;;;;;;;;;;5006841;28;20026;-75
2023/05/17 05:27:48;;;;;;;9.75;3.40;;;;;;;;;;5011683;28;20024;-76
2023/05/17 05:30:21;;;;;;;7.20;2.60;;;;;;;;;;5013333;28;20013;-76
2023/05/17 05:32:48;;;;;;;7.72;3.10;;;;;;;;;;5008306;28;20112;-75
2023/05/17 05:35:14;;;;;;;8.20;3.00;;;;;;;;;;5006466;28;20052;-75
2023/05/17 05:37:40;;;;;;;8.93;3.30;;;;;;;;;;5010466;28;20453;-75
2023/05/17 05:40:06;;;;;;;11.23;3.17;;;;;;;;;;5012777;28;20084;-75
2023/05/17 05:42:31;;;;;;;13.25;3.63;;;;;;;;;;5024733;28;20034;-75
2023/05/17 05:44:56;;;;;;;8.45;3.40;;;;;;;;;;4993964;28;20072;-75
2023/05/17 05:47:23;;;;;;;11.18;3.63;;;;;;;;;;5004533;28;20030;-75
2023/05/17 05:49:48;;;;;;;10.00;3.88;;;;;;;;;;4998727;28;20033;-75
2023/05/17 05:52:13;;;;;;;9.23;3.33;;;;;;;;;;5010791;28;20096;-75
2023/05/17 05:54:39;;;;;;;14.00;4.28;;;;;;;;;;5006911;28;20515;-76
2023/05/17 05:57:05;;;;;;;13.18;3.88;;;;;;;;;;5009902;28;20013;-76
2023/05/17 05:59:31;;;;;;;10.77;3.85;;;;;;;;;;5026823;28;20432;-75
2023/05/17 06:01:57;;;;;;;9.75;3.40;;;;;;;;;;5009680;28;20126;-76
2023/05/17 06:04:23;;;;;;;15.73;4.03;;;;;;;;;;5010925;28;20044;-76
2023/05/17 06:06:49;;;;;;;12.13;3.70;;;;;;;;;;5022776;28;20049;-75
2023/05/17 06:09:14;;;;;;;10.82;3.22;;;;;;;;;;5024052;28;20022;-76
2023/05/17 06:11:39;;;;;;;8.93;3.17;;;;;;;;;;5024043;28;20122;-76
2023/05/17 06:14:04;;;;;;;11.65;3.40;;;;;;;;;;5025607;28;20108;-76
2023/05/17 06:16:29;;;;;;;9.77;3.33;;;;;;;;;;5027466;28;20035;-75
2023/05/17 06:18:55;;;;;;;11.93;3.78;;;;;;;;;;5028197;28;20040;-76
2023/05/17 06:21:20;;;;;;;11.05;3.65;;;;;;;;;;5028345;28;20036;-76
2023/05/17 06:23:46;;;;;;;10.15;3.20;;;;;;;;;;5025096;28;20034;-76
2023/05/17 06:26:11;;;;;;;14.30;4.60;;;;;;;;;;5025310;28;20045;-76
2023/05/17 06:28:36;;;;;;;15.32;3.80;;;;;;;;;;5025083;28;20037;-76
2023/05/17 06:31:01;;;;;;;11.38;3.65;;;;;;;;;;5023150;28;20121;-76
2023/05/17 06:33:27;;;;;;;13.15;3.80;;;;;;;;;;5024571;28;20076;-76
2023/05/17 06:35:52;;;;;;;12.48;3.40;;;;;;;;;;5026630;28;20052;-76
2023/05/17 06:38:17;;;;;;;12.13;3.60;;;;;;;;;;5026825;28;20037;-76
2023/05/17 06:40:42;;;;;;;11.82;3.75;;;;;;;;;;5026108;28;20038;-76
2023/05/17 06:43:07;;;;;;;12.63;4.40;;;;;;;;;;5022741;28;20083;-76
2023/05/17 06:45:33;;;;;;;11.90;3.65;;;;;;;;;;5005674;28;20459;-76
2023/05/17 06:47:58;;;;;;;15.02;4.03;;;;;;;;;;5024584;28;20029;-76
2023/05/17 06:50:25;;;;;;;12.70;4.55;;;;;;;;;;5005276;28;20033;-76
2023/05/17 06:52:51;;;;;;;13.10;4.03;;;;;;;;;;5023234;28;20034;-76
2023/05/17 06:55:16;;;;;;;11.40;3.40;;;;;;;;;;5022709;28;20453;-76
2023/05/17 06:57:41;;;;;;;10.63;3.33;;;;;;;;;;5026118;28;20493;-76
2023/05/17 07:00:09;;;;;;;13.93;3.80;;;;;;;;;;5031023;28;20504;-76
2023/05/17 07:02:35;;;;;;;17.00;4.07;;;;;;;;;;5025720;28;20038;-76
2023/05/17 07:05:00;;;;;;;10.80;3.40;;;;;;;;;;5024724;28;20041;-76
2023/05/17 07:07:25;;;;;;;14.70;3.45;;;;;;;;;;5021079;28;20037;-76
2023/05/17 07:09:50;;;;;;;11.82;4.55;;;;;;;;;;5027402;28;20036;-76
2023/05/17 07:12:15;;;;;;;16.05;3.60;;;;;;;;;;5024434;28;20079;-76
2023/05/17 07:14:41;;;;;;;11.25;3.35;;;;;;;;;;5027682;28;20033;-76
2023/05/17 07:17:06;;;;;;;15.13;3.50;;;;;;;;;;5020764;28;20143;-76
2023/05/17 07:19:31;;;;;;;9.00;3.40;;;;;;;;;;5023794;28;20025;-76
2023/05/17 07:21:56;;;;;;;12.20;3.28;;;;;;;;;;5024207;28;20036;-76
2023/05/17 07:24:21;;;;;;;16.80;3.15;;;;;;;;;;5024331;28;20111;-76
2023/05/17 07:26:47;;;;;;;11.23;3.40;;;;;;;;;;5020265;28;20041;-76
2023/05/17 07:29:12;;;;;;;17.35;4.13;;;;;;;;;;5023982;28;20048;-76
2023/05/17 07:31:37;;;;;;;10.65;3.58;;;;;;;;;;5025416;28;21207;-76
2023/05/17 07:34:03;;;;;;;15.73;3.63;;;;;;;;;;5024117;28;20091;-76
2023/05/17 07:36:29;;;;;;;13.68;4.15;;;;;;;;;;5023958;28;20029;-76
2023/05/17 07:38:55;;;;;;;11.48;3.58;;;;;;;;;;5019998;28;20503;-76
2023/05/17 07:41:22;;;;;;;7.97;2.95;;;;;;;;;;5006401;28;20037;-76
2023/05/17 07:43:47;;;;;;;8.75;2.60;;;;;;;;;;5023200;28;20037;-76
2023/05/17 07:46:12;;;;;;;15.20;3.88;;;;;;;;;;5026264;28;20048;-76
2023/05/17 07:48:37;;;;;;;12.60;3.40;;;;;;;;;;5003033;28;20131;-76
2023/05/17 07:51:03;;;;;;;12.05;4.53;;;;;;;;;;5008912;28;20041;-76
2023/05/17 07:53:28;;;;;;;9.75;3.22;;;;;;;;;;5024126;28;20067;-76
2023/05/17 07:55:53;;;;;;;10.95;3.47;;;;;;;;;;5019798;28;20092;-76
2023/05/17 07:58:18;;;;;;;9.07;3.10;;;;;;;;;;5021704;28;20032;-76
2023/05/17 08:00:43;;;;;;;12.38;3.30;;;;;;;;;;5020653;28;20480;-76
2023/05/17 08:03:09;;;;;;;7.95;2.80;;;;;;;;;;5019485;28;20026;-76
2023/05/17 08:05:34;;;;;;;13.63;3.65;;;;;;;;;;5005167;28;20507;-76
2023/05/17 08:08:00;;;;;;;11.60;3.90;;;;;;;;;;5004211;28;20507;-76
2023/05/17 08:10:25;;;;;;;10.60;2.95;;;;;;;;;;5021521;28;20022;-76
2023/05/17 08:12:51;;;;;;;8.43;2.80;;;;;;;;;;5003525;28;20112;-77
2023/05/17 08:15:16;;;;;;;7.47;2.65;;;;;;;;;;5023364;28;20021;-76
2023/05/17 08:17:41;;;;;;;8.02;2.95;;;;;;;;;;5021849;28;20025;-76
2023/05/17 08:20:07;;;;;;;13.02;3.67;;;;;;;;;;5019918;28;20029;-77
2023/05/17 08:22:32;;;;;;;10.75;3.70;;;;;;;;;;5008627;28;20098;-77
2023/05/17 08:24:57;;;;;;;11.85;2.92;;;;;;;;;;5025548;28;20037;-77
2023/05/17 08:27:24;;;;;;;11.05;3.20;;;;;;;;;;5025196;28;20049;-77
2023/05/17 08:29:50;;;;;;;9.40;3.42;;;;;;;;;;5022961;28;20068;-76
2023/05/17 08:32:15;;;;;;;12.50;3.38;;;;;;;;;;5021510;28;20106;-76
2023/05/17 08:34:41;;;;;;;12.80;4.50;;;;;;;;;;5020305;28;20112;-75
2023/05/17 08:37:06;;;;;;;8.93;3.08;;;;;;;;;;5023064;28;20410;-76
2023/05/17 08:39:32;;;;;;;8.60;2.53;;;;;;;;;;5009987;28;20030;-75
2023/05/17 08:41:58;;;;;;;11.43;3.00;;;;;;;;;;5026864;28;20471;-76
2023/05/17 08:44:24;;;;;;;9.80;3.55;;;;;;;;;;5024363;28;20037;-77
2023/05/17 08:46:50;;;;;;;10.50;3.40;;;;;;;;;;5024075;28;20033;-76
2023/05/17 08:49:16;;;;;;;9.93;2.78;;;;;;;;;;5004176;28;20034;-76
2023/05/17 08:51:42;;;;;;;9.50;2.75;;;;;;;;;;5025266;28;20030;-76
2023/05/17 08:54:07;;;;;;;9.45;2.70;;;;;;;;;;5004604;28;20033;-76
2023/05/17 08:56:34;;;;;;;14.02;2.90;;;;;;;;;;5027258;28;20396;-76
2023/05/17 08:59:00;;;;;;;9.93;2.53;;;;;;;;;;5028277;28;20040;-76
2023/05/17 09:01:25;;;;;;;13.32;3.05;;;;;;;;;;5031075;28;20034;-76
2023/05/17 09:03:51;;;;;;;13.70;3.28;;;;;;;;;;5027446;28;20056;-76
2023/05/17 09:06:19;;;;;;;10.00;2.50;;;;;;;;;;5029716;28;20043;-76
2023/05/17 09:08:44;;;;;;;9.90;3.03;;;;;;;;;;5027198;28;20041;-76
2023/05/17 09:11:09;;;;;;;9.95;2.60;;;;;;;;;;5030597;28;20076;-76
2023/05/17 09:13:34;;;;;;;9.38;2.90;;;;;;;;;;5026507;28;20037;-75
2023/05/17 09:16:00;;;;;;;10.13;2.85;;;;;;;;;;5027887;28;20026;-76
2023/05/17 09:18:29;;;;;;;10.43;3.20;;;;;;;;;;5029201;28;20028;-76
2023/05/17 09:20:55;;;;;;;10.98;3.00;;;;;;;;;;5026271;28;20041;-76
2023/05/17 09:23:20;;;;;;;11.05;2.80;;;;;;;;;;5028083;28;20113;-77
2023/05/17 09:25:47;;;;;;;13.32;3.08;;;;;;;;;;5025411;28;20484;-76
2023/05/17 09:28:12;;;;;;;10.68;2.42;;;;;;;;;;5024549;28;20450;-77
2023/05/17 09:30:38;;;;;;;11.98;2.55;;;;;;;;;;5029739;28;20108;-77
2023/05/17 09:33:04;;;;;;;8.48;2.80;;;;;;;;;;5024325;28;20038;-76
2023/05/17 09:35:30;;;;;;;10.18;2.70;;;;;;;;;;5027988;28;20415;-77
2023/05/17 09:38:21;;;;;;;10.02;2.25;;;;;;;;;;5025856;28;20036;-77
2023/05/17 09:40:47;;;;;;;11.27;2.58;;;;;;;;;;5025805;28;20471;-76
2023/05/17 09:43:13;;;;;;;14.38;2.30;;;;;;;;;;5024196;28;20029;-77
2023/05/17 09:45:38;;;;;;;9.43;2.20;;;;;;;;;;5008543;28;20496;-76
2023/05/17 09:48:14;;;;;;;9.02;2.38;;;;;;;;;;5021898;28;20033;-76
2023/05/17 09:50:46;;;;;;;10.38;2.55;;;;;;;;;;5012637;28;20034;-76
2023/05/17 09:53:25;;;;;;;8.52;2.28;;;;;;;;;;5028652;28;20029;-77
2023/05/17 09:55:54;;;;;;;10.73;2.55;;;;;;;;;;5027261;28;20037;-77
2023/05/17 09:58:20;;;;;;;8.13;2.40;;;;;;;;;;5026919;28;20482;-75
2023/05/17 10:00:48;;;;;;;10.90;2.53;;;;;;;;;;5028086;28;20061;-76
2023/05/17 10:03:13;;;;;;;10.50;2.30;;;;;;;;;;5029050;28;20033;-76
2023/05/17 10:05:41;;;;;;;12.43;2.17;;;;;;;;;;5030831;28;20503;-76
2023/05/17 10:08:06;;;;;;;9.75;2.00;;;;;;;;;;5024362;28;20049;-76
2023/05/17 10:10:31;;;;;;;11.85;2.40;;;;;;;;;;5022835;28;20021;-77
2023/05/17 10:12:57;;;;;;;9.38;2.50;;;;;;;;;;5028947;28;20056;-76
2023/05/17 10:15:23;;;;;;;7.45;2.25;;;;;;;;;;5006496;28;20061;-76
2023/05/17 10:17:48;;;;;;;9.10;1.95;;;;;;;;;;5025785;28;20056;-76
2023/05/17 10:20:16;;;;;;;12.05;2.75;;;;;;;;;;5028975;28;20088;-76
2023/05/17 10:22:41;;;;;;;10.95;1.98;;;;;;;;;;5009228;28;20037;-76
2023/05/17 10:25:06;;;;;;;8.15;2.20;;;;;;;;;;5022529;28;20462;-76
2023/05/17 10:27:32;;;;;;;5.60;1.73;;;;;;;;;;5022969;28;20111;-76
2023/05/17 10:29:58;;;;;;;9.90;2.03;;;;;;;;;;5025960;28;20036;-76
2023/05/17 10:32:25;;;;;;;8.73;2.05;;;;;;;;;;5024964;28;20037;-76
2023/05/17 10:34:51;;;;;;;6.45;1.77;;;;;;;;;;5022979;28;20160;-76
2023/05/17 10:37:18;;;;;;;8.48;1.67;;;;;;;;;;5026723;28;20060;-76
2023/05/17 10:39:45;;;;;;;7.80;2.30;;;;;;;;;;5005466;28;20037;-75
2023/05/17 10:42:12;;;;;;;10.10;2.55;;;;;;;;;;5024852;28;20036;-75
2023/05/17 10:44:37;;;;;;;6.18;1.63;;;;;;;;;;5025136;28;20086;-75
2023/05/17 10:47:03;;;;;;;10.25;3.08;;;;;;;;;;5022679;28;20042;-76
2023/05/17 10:49:29;;;;;;;7.38;2.25;;;;;;;;;;5021815;28;20069;-76
2023/05/17 10:51:55;;;;;;;10.27;2.03;;;;;;;;;;5029649;28;20638;-76
2023/05/17 10:54:32;;;;;;;10.10;2.10;;;;;;;;;;5020123;28;20040;-75
2023/05/17 10:57:00;;;;;;;6.38;1.50;;;;;;;;;;5014480;28;20081;-75
2023/05/17 10:59:26;;;;;;;8.55;1.88;;;;;;;;;;5024153;28;20069;-76
2023/05/17 11:01:55;;;;;;;7.25;1.80;;;;;;;;;;5021761;28;20032;-76
2023/05/17 11:04:24;;;;;;;6.60;1.67;;;;;;;;;;5026819;28;20044;-75
2023/05/17 11:06:50;;;;;;;8.35;1.45;;;;;;;;;;5027079;28;20095;-77
2023/05/17 11:09:16;;;;;;;5.85;1.60;;;;;;;;;;5024810;28;20034;-76
2023/05/17 11:12:00;;;;;;;7.90;1.67;;;;;;;;;;5023515;28;20043;-76
2023/05/17 11:14:25;;;;;;;6.45;1.50;;;;;;;;;;5022328;28;20113;-76
2023/05/17 11:16:55;;;;;;;6.80;1.55;;;;;;;;;;5025826;28;20528;-76
2023/05/17 11:19:20;;;;;;;7.28;1.70;;;;;;;;;;5020365;28;20076;-76
2023/05/17 11:21:46;;;;;;;8.43;1.85;;;;;;;;;;5027835;28;20029;-76
2023/05/17 11:24:15;;;;;;;8.20;1.65;;;;;;;;;;5024760;28;20519;-77
2023/05/17 11:26:43;;;;;;;7.32;2.08;;;;;;;;;;5030533;28;20026;-76
2023/05/17 11:29:09;;;;;;;6.97;1.60;;;;;;;;;;5021839;28;20040;-76
2023/05/17 11:31:35;;;;;;;6.50;1.75;;;;;;;;;;5024153;28;20487;-77
2023/05/17 11:34:04;;;;;;;7.68;1.75;;;;;;;;;;5020935;28;20096;-76
2023/05/17 11:36:29;;;;;;;5.95;1.85;;;;;;;;;;5024713;28;20034;-77
2023/05/17 11:39:11;;;;;;;6.25;1.42;;;;;;;;;;5005849;28;20030;-76
2023/05/17 11:41:40;;;;;;;3.95;1.17;;;;;;;;;;5021105;28;20108;-77
2023/05/17 11:44:05;;;;;;;5.57;1.40;;;;;;;;;;5023592;28;20033;-76
2023/05/17 11:46:31;;;;;;;7.72;1.58;;;;;;;;;;5023264;28;20564;-77
2023/05/17 11:48:57;;;;;;;9.05;1.75;;;;;;;;;;5024792;28;20026;-76
2023/05/17 11:51:23;;;;;;;6.30;1.60;;;;;;;;;;5003742;28;20108;-76
2023/05/17 11:53:48;;;;;;;5.57;1.40;;;;;;;;;;5023506;28;20117;-77
2023/05/17 11:56:14;;;;;;;6.50;1.48;;;;;;;;;;5022927;28;20137;-75
2023/05/17 11:58:41;;;;;;;5.40;1.52;;;;;;;;;;5026046;28;20026;-76
2023/05/17 12:01:07;;;;;;;6.80;1.40;;;;;;;;;;4986372;28;20484;-76
2023/05/17 12:03:33;;;;;;;5.43;1.50;;;;;;;;;;5022932;28;20061;-77
2023/05/17 12:06:09;;;;;;;5.05;1.80;;;;;;;;;;5020642;28;20029;-76
2023/05/17 12:08:36;;;;;;;8.10;1.80;;;;;;;;;;5020986;28;20018;-76
2023/05/17 12:11:03;;;;;;;7.88;2.00;;;;;;;;;;5023338;28;20713;-76
2023/05/17 12:13:29;;;;;;;6.13;1.70;;;;;;;;;;5022377;28;20116;-76
2023/05/17 12:16:02;;;;;;;5.57;1.80;;;;;;;;;;5003813;28;20029;-75
2023/05/17 12:18:58;;;;;;;9.73;1.52;;;;;;;;;;5020643;28;20037;-76
2023/05/17 12:21:23;;;;;;;5.50;1.58;;;;;;;;;;5009701;28;20047;-76
2023/05/17 12:23:51;;;;;;;4.95;1.40;;;;;;;;;;5026279;28;20037;-76
2023/05/17 12:26:18;;;;;;;11.25;1.70;;;;;;;;;;5008213;28;20102;-77
2023/05/17 12:28:55;;;;;;;5.43;1.70;;;;;;;;;;5025727;28;20037;-77
2023/05/17 12:31:23;;;;;;;7.95;2.13;;;;;;;;;;5023121;28;20448;-76
2023/05/17 12:33:49;;;;;;;8.27;1.67;;;;;;;;;;5019498;28;20033;-77
2023/05/17 12:36:15;;;;;;;6.40;1.77;;;;;;;;;;5022859;28;20033;-75
2023/05/17 12:38:41;;;;;;;8.38;1.85;;;;;;;;;;5023134;28;20034;-77
2023/05/17 12:41:07;;;;;;;3.97;1.50;;;;;;;;;;5007540;28;20053;-76
2023/05/17 12:43:36;;;;;;;7.05;1.95;;;;;;;;;;5025099;28;20045;-77
2023/05/17 12:46:08;;;;;;;6.45;2.20;;;;;;;;;;5022401;28;20112;-76
2023/05/17 12:48:34;;;;;;;6.70;1.67;;;;;;;;;;5021013;28;20121;-77
2023/05/17 12:51:09;;;;;;;6.00;1.17;;;;;;;;;;5022899;28;20080;-77
2023/05/17 12:53:48;;;;;;;6.95;1.70;;;;;;;;;;5022874;28;20041;-76
2023/05/17 12:56:15;;;;;;;7.40;2.03;;;;;;;;;;5020291;28;20381;-77
2023/05/17 12:58:40;;;;;;;6.95;2.00;;;;;;;;;;5005541;28;20025;-76
2023/05/17 13:01:06;;;;;;;11.65;2.22;;;;;;;;;;5022975;28;20025;-77
2023/05/17 13:03:32;;;;;;;6.30;1.65;;;;;;;;;;5023829;28;20046;-77
2023/05/17 13:06:02;;;;;;;8.18;1.80;;;;;;;;;;5025562;28;20092;-77
2023/05/17 13:08:27;;;;;;;11.43;2.00;;;;;;;;;;5023866;28;20080;-77
2023/05/17 13:10:52;;;;;;;14.77;2.00;;;;;;;;;;5003605;28;20046;-77
2023/05/17 13:13:18;;;;;;;6.80;1.83;;;;;;;;;;5024971;28;20029;-77
2023/05/17 13:15:46;;;;;;;7.63;1.63;;;;;;;;;;5023183;28;20075;-77
2023/05/17 13:18:12;;;;;;;6.00;1.98;;;;;;;;;;5006017;28;20021;-76
2023/05/17 13:20:38;;;;;;;4.25;1.40;;;;;;;;;;5010133;28;20405;-76
2023/05/17 13:23:04;;;;;;;9.30;2.58;;;;;;;;;;5027217;28;20029;-77
2023/05/17 13:25:30;;;;;;;6.47;1.80;;;;;;;;;;5003921;28;20029;-77
2023/05/17 13:27:55;;;;;;;6.30;1.75;;;;;;;;;;5023372;28;20532;-77
2023/05/17 13:30:21;;;;;;;5.90;1.75;;;;;;;;;;5026924;28;20033;-77
2023/05/17 13:32:46;;;;;;;5.40;2.08;;;;;;;;;;5019198;28;20041;-76
2023/05/17 13:35:11;;;;;;;10.55;2.83;;;;;;;;;;5024627;28;20114;-77
2023/05/17 13:37:36;;;;;;;7.63;2.28;;;;;;;;;;5022486;28;20037;-77
2023/05/17 13:40:02;;;;;;;7.15;2.17;;;;;;;;;;5023476;28;20014;-77
2023/05/17 13:42:28;;;;;;;6.68;1.92;;;;;;;;;;5025772;28;20060;-76
2023/05/17 13:44:53;;;;;;;6.60;2.15;;;;;;;;;;5012251;28;20021;-76
2023/05/17 13:47:18;;;;;;;6.20;2.10;;;;;;;;;;5030429;28;20032;-77
2023/05/17 13:49:43;;;;;;;5.32;2.20;;;;;;;;;;5025490;28;20038;-78
2023/05/17 13:52:11;;;;;;;6.50;1.93;;;;;;;;;;5029931;28;20025;-77
2023/05/17 13:54:36;;;;;;;7.53;2.35;;;;;;;;;;5029133;28;20276;-77
2023/05/17 13:57:01;;;;;;;6.78;1.98;;;;;;;;;;5009200;28;20148;-77
2023/05/17 13:59:27;;;;;;;7.57;2.10;;;;;;;;;;5031295;28;20029;-77
2023/05/17 14:01:52;;;;;;;7.65;2.47;;;;;;;;;;5012545;28;20029;-77
2023/05/17 14:04:18;;;;;;;5.97;2.03;;;;;;;;;;5029246;28;20540;-78
2023/05/17 14:06:44;;;;;;;6.80;2.22;;;;;;;;;;5029576;28;20042;-76
2023/05/17 14:09:09;;;;;;;6.37;2.17;;;;;;;;;;5008279;28;20052;-77
2023/05/17 14:11:34;;;;;;;7.53;2.25;;;;;;;;;;5025054;28;20309;-77
2023/05/17 14:14:00;;;;;;;5.93;2.20;;;;;;;;;;5027082;28;20057;-78
2023/05/17 14:16:25;;;;;;;5.05;1.80;;;;;;;;;;5024834;28;20435;-78
2023/05/17 14:18:50;;;;;;;7.63;1.98;;;;;;;;;;5025773;28;20033;-77
2023/05/17 14:21:15;;;;;;;6.57;2.13;;;;;;;;;;5027723;28;20025;-78
2023/05/17 14:23:40;;;;;;;5.30;2.00;;;;;;;;;;5025276;28;20280;-78
2023/05/17 14:26:06;;;;;;;4.10;1.87;;;;;;;;;;5024387;28;20268;-77
2023/05/17 14:28:32;;;;;;;7.20;2.20;;;;;;;;;;5027697;28;20659;-78
2023/05/17 14:30:57;;;;;;;7.45;2.42;;;;;;;;;;5085201;22;20073;-79
2023/05/17 14:33:22;;;;;;;10.15;1.95;;;;;;;;;;5029379;28;20030;-80
2023/05/17 14:35:48;;;;;;;8.68;2.20;;;;;;;;;;5025727;28;20021;-80